createdAt,value
2023-05-19T00:01:47.505Z,16.10
2023-05-19T00:04:14.674Z,17.00
2023-05-19T00:06:41.691Z,15.20
2023-05-19T00:09:08.800Z,16.90
2023-05-19T00:11:36.212Z,20.00
2023-05-19T00:14:04.071Z,18.30
2023-05-19T00:16:30.883Z,15.30
2023-05-19T00:18:59.328Z,18.90
2023-05-19T00:21:26.205Z,15.30
2023-05-19T00:23:54.070Z,19.30
2023-05-19T00:26:22.153Z,19.20
2023-05-19T00:28:54.962Z,17.60
2023-05-19T00:31:21.374Z,18.00
2023-05-19T00:33:47.770Z,15.40
2023-05-19T00:36:14.204Z,19.50
2023-05-19T00:38:40.607Z,17.60
2023-05-19T00:41:07.003Z,18.70
2023-05-19T00:43:36.327Z,14.70
2023-05-19T00:46:03.052Z,18.50
2023-05-19T00:48:29.524Z,14.80
2023-05-19T00:51:01.439Z,19.10
2023-05-19T00:53:28.729Z,20.20
2023-05-19T00:55:55.458Z,16.80
2023-05-19T00:58:23.196Z,16.90
2023-05-19T01:00:49.949Z,14.00
2023-05-19T01:03:19.756Z,19.00
2023-05-19T01:05:47.001Z,19.60
2023-05-19T01:08:13.424Z,14.90
2023-05-19T01:10:40.535Z,15.30
2023-05-19T01:13:07.937Z,16.80
2023-05-19T01:15:38.170Z,12.30
2023-05-19T01:18:07.750Z,14.20
2023-05-19T01:20:52.004Z,13.40
2023-05-19T01:23:32.049Z,13.60
2023-05-19T01:26:10.533Z,17.40
2023-05-19T01:28:43.115Z,14.40
2023-05-19T01:31:11.334Z,17.50
2023-05-19T01:33:40.517Z,15.90
2023-05-19T01:36:08.152Z,14.30
2023-05-19T01:38:37.380Z,14.00
2023-05-19T01:41:05.365Z,20.40
2023-05-19T01:43:34.930Z,13.00
2023-05-19T01:46:02.072Z,11.40
2023-05-19T01:48:29.314Z,11.20
2023-05-19T01:50:57.609Z,11.50
2023-05-19T01:53:24.252Z,13.60
2023-05-19T01:55:51.722Z,13.20
2023-05-19T01:58:22.229Z,10.90
2023-05-19T02:01:07.547Z,13.80
2023-05-19T02:03:49.699Z,11.90
2023-05-19T02:06:30.907Z,13.90
2023-05-19T02:11:35.728Z,12.60
2023-05-19T02:14:04.765Z,11.90
2023-05-19T02:16:31.816Z,13.90
2023-05-19T02:18:58.860Z,12.10
2023-05-19T02:21:25.382Z,12.70
2023-05-19T02:23:51.722Z,12.80
2023-05-19T02:26:19.635Z,10.60
2023-05-19T02:28:46.057Z,12.50
2023-05-19T02:31:12.445Z,14.30
2023-05-19T02:33:38.869Z,12.00
2023-05-19T02:36:05.684Z,11.00
2023-05-19T02:38:32.147Z,13.20
2023-05-19T02:40:58.963Z,11.40
2023-05-19T02:43:25.367Z,12.30
2023-05-19T02:45:51.780Z,11.60
2023-05-19T02:48:19.408Z,11.30
2023-05-19T02:50:46.478Z,14.60
2023-05-19T02:53:13.039Z,14.80
2023-05-19T02:55:39.389Z,12.90
2023-05-19T02:58:05.999Z,12.80
2023-05-19T03:00:32.702Z,12.60
2023-05-19T03:03:02.093Z,14.10
2023-05-19T03:05:29.691Z,13.60
2023-05-19T03:07:56.194Z,13.60
2023-05-19T03:10:22.631Z,14.00
2023-05-19T03:12:49.268Z,16.00
2023-05-19T03:15:15.736Z,13.80
2023-05-19T03:17:42.220Z,15.40
2023-05-19T03:20:10.399Z,13.90
2023-05-19T03:22:36.784Z,15.70
2023-05-19T03:25:03.661Z,15.70
2023-05-19T03:27:31.495Z,11.00
2023-05-19T03:30:00.426Z,13.20
2023-05-19T03:32:28.743Z,12.50
2023-05-19T03:34:55.312Z,12.80
2023-05-19T03:37:22.094Z,12.30
2023-05-19T03:39:48.544Z,12.20
2023-05-19T03:42:15.531Z,11.90
2023-05-19T03:44:42.272Z,17.60
2023-05-19T03:47:10.444Z,11.00
2023-05-19T03:49:45.987Z,14.20
2023-05-19T03:52:33.142Z,12.60
2023-05-19T03:55:08.246Z,11.70
2023-05-19T03:57:34.874Z,13.40
2023-05-19T04:00:01.621Z,12.80
2023-05-19T04:02:38.886Z,11.60
2023-05-19T04:05:07.858Z,12.90
2023-05-19T04:07:34.371Z,20.30
2023-05-19T04:10:01.758Z,16.80
2023-05-19T04:12:28.274Z,13.00
2023-05-19T04:14:54.726Z,16.90
2023-05-19T04:17:25.576Z,18.90
2023-05-19T04:19:55.015Z,12.50
2023-05-19T04:22:21.973Z,12.20
2023-05-19T04:24:49.831Z,12.10
2023-05-19T04:27:17.572Z,14.70
2023-05-19T04:29:47.673Z,15.10
2023-05-19T04:32:18.243Z,14.30
2023-05-19T04:34:45.610Z,14.30
2023-05-19T04:37:19.319Z,14.10
2023-05-19T04:39:45.910Z,66.50
2023-05-19T04:42:13.201Z,84.40
2023-05-19T04:44:39.885Z,155.80
2023-05-19T04:47:07.970Z,79.90
2023-05-19T04:49:41.637Z,246.30
2023-05-19T04:52:10.202Z,169.40
2023-05-19T04:54:37.552Z,164.80
2023-05-19T04:57:05.070Z,121.20
2023-05-19T04:59:32.751Z,131.70
2023-05-19T05:01:59.529Z,29.00
2023-05-19T05:04:26.995Z,20.20
2023-05-19T05:06:53.474Z,12.60
2023-05-19T05:09:20.385Z,18.40
2023-05-19T05:11:48.833Z,17.20
2023-05-19T05:14:15.648Z,16.30
2023-05-19T05:16:42.818Z,11.00
2023-05-19T05:19:11.374Z,11.40
2023-05-19T05:21:37.984Z,10.00
2023-05-19T05:24:04.817Z,15.60
2023-05-19T05:26:32.927Z,9.30
2023-05-19T05:29:00.470Z,10.90
2023-05-19T05:31:27.059Z,12.20
2023-05-19T05:33:53.638Z,11.10
2023-05-19T05:36:22.717Z,16.40
2023-05-19T05:38:49.199Z,10.70
2023-05-19T05:41:15.621Z,10.20
2023-05-19T05:43:42.531Z,11.80
2023-05-19T05:46:09.284Z,19.30
2023-05-19T05:48:36.445Z,13.60
2023-05-19T05:51:04.787Z,13.20
2023-05-19T05:53:32.948Z,12.20
2023-05-19T05:55:59.928Z,12.30
2023-05-19T05:58:28.492Z,10.20
2023-05-19T06:00:57.134Z,12.30
2023-05-19T06:03:25.404Z,11.20
2023-05-19T06:05:52.579Z,10.50
2023-05-19T06:08:19.395Z,10.90
2023-05-19T06:10:47.539Z,13.00
2023-05-19T06:13:18.120Z,13.60
2023-05-19T06:15:45.972Z,10.50
2023-05-19T06:18:20.076Z,8.80
2023-05-19T06:20:47.803Z,9.70
2023-05-19T06:23:14.313Z,9.70
2023-05-19T06:25:41.074Z,12.90
2023-05-19T06:28:07.735Z,11.30
2023-05-19T06:30:34.510Z,7.90
2023-05-19T06:33:21.364Z,10.20
2023-05-19T06:35:48.554Z,9.80
2023-05-19T06:38:15.871Z,9.60
2023-05-19T06:40:42.599Z,8.60
2023-05-19T06:43:09.715Z,12.50
2023-05-19T06:45:56.101Z,8.30
2023-05-19T06:48:24.583Z,10.10
2023-05-19T06:50:51.213Z,9.50
2023-05-19T06:53:19.057Z,11.00
2023-05-19T06:55:57.852Z,10.10
2023-05-19T06:58:26.463Z,9.40
2023-05-19T07:00:53.150Z,7.90
2023-05-19T07:03:21.082Z,9.40
2023-05-19T07:05:48.283Z,8.10
2023-05-19T07:08:15.203Z,8.60
2023-05-19T07:10:42.040Z,8.60
2023-05-19T07:13:11.377Z,7.00
2023-05-19T07:15:37.789Z,8.80
2023-05-19T07:18:04.838Z,7.20
2023-05-19T07:20:31.556Z,8.80
2023-05-19T07:22:58.198Z,6.40
2023-05-19T07:25:26.488Z,8.00
2023-05-19T07:27:52.954Z,6.50
2023-05-19T07:30:19.485Z,10.10
2023-05-19T07:32:45.938Z,9.30
2023-05-19T07:35:12.601Z,8.00
2023-05-19T07:37:39.079Z,7.10
2023-05-19T07:40:06.871Z,9.40
2023-05-19T07:42:33.637Z,6.20
2023-05-19T07:45:00.611Z,6.70
2023-05-19T07:47:27.060Z,7.40
2023-05-19T07:49:53.627Z,7.30
2023-05-19T07:52:20.308Z,10.30
2023-05-19T07:54:46.772Z,8.60
2023-05-19T07:57:13.926Z,8.50
2023-05-19T07:59:40.708Z,9.70
2023-05-19T08:02:07.342Z,9.20
2023-05-19T08:04:34.008Z,9.40
2023-05-19T08:07:00.485Z,8.50
2023-05-19T08:09:27.005Z,9.30
2023-05-19T08:11:53.656Z,8.60
2023-05-19T08:14:22.324Z,9.40
2023-05-19T08:16:49.356Z,11.50
2023-05-19T08:19:15.842Z,12.40
2023-05-19T08:21:42.239Z,11.20
2023-05-19T08:24:08.641Z,9.30
2023-05-19T08:26:37.070Z,10.00
2023-05-19T08:29:04.265Z,9.50
2023-05-19T08:31:30.960Z,11.50
2023-05-19T08:33:57.807Z,11.70
2023-05-19T08:36:24.252Z,9.50
2023-05-19T08:38:50.958Z,9.00
2023-05-19T08:41:17.415Z,10.10
2023-05-19T08:43:44.481Z,10.40
2023-05-19T08:46:12.906Z,7.00
2023-05-19T08:48:41.462Z,11.30
2023-05-19T08:51:19.591Z,10.20
2023-05-19T08:53:48.143Z,11.10
2023-05-19T08:56:15.783Z,10.90
2023-05-19T08:58:43.392Z,11.40
2023-05-19T09:01:13.177Z,9.50
2023-05-19T09:03:40.119Z,10.90
2023-05-19T09:06:09.715Z,8.80
2023-05-19T09:08:36.709Z,11.10
2023-05-19T09:11:03.152Z,13.30
2023-05-19T09:13:29.647Z,11.60
2023-05-19T09:15:56.935Z,10.40
2023-05-19T09:18:23.938Z,10.90
2023-05-19T09:20:50.360Z,12.10
2023-05-19T09:23:17.620Z,13.20
2023-05-19T09:25:51.124Z,9.20
2023-05-19T09:28:24.627Z,8.30
2023-05-19T09:30:58.059Z,11.30
2023-05-19T09:33:24.452Z,9.20
2023-05-19T09:35:51.116Z,12.10
2023-05-19T09:38:18.534Z,8.90
2023-05-19T09:40:45.084Z,10.70
2023-05-19T09:43:14.193Z,6.90
2023-05-19T09:45:40.645Z,11.50
2023-05-19T09:48:07.228Z,9.30
2023-05-19T09:50:35.004Z,9.70
2023-05-19T09:53:02.538Z,12.10
2023-05-19T09:55:29.043Z,9.30
2023-05-19T09:57:55.951Z,8.50
2023-05-19T10:00:22.346Z,9.90
2023-05-19T10:02:50.216Z,10.00
2023-05-19T10:05:19.463Z,7.50
2023-05-19T10:07:48.184Z,8.30
2023-05-19T10:10:15.131Z,8.40
2023-05-19T10:12:41.844Z,9.80
2023-05-19T10:15:12.114Z,11.20
2023-05-19T10:17:40.018Z,11.30
2023-05-19T10:20:10.753Z,11.40
2023-05-19T10:22:39.045Z,11.70
2023-05-19T10:25:06.501Z,6.60
2023-05-19T10:27:44.187Z,7.80
2023-05-19T10:30:16.490Z,7.70
2023-05-19T10:32:44.149Z,7.40
2023-05-19T10:35:22.771Z,9.60
2023-05-19T10:38:07.415Z,6.60
2023-05-19T10:40:37.372Z,7.90
2023-05-19T10:43:11.255Z,11.00
2023-05-19T10:45:48.876Z,8.60
2023-05-19T10:48:16.511Z,9.00
2023-05-19T10:50:44.032Z,6.10
2023-05-19T10:53:17.807Z,10.70
2023-05-19T10:55:46.263Z,9.50
2023-05-19T10:58:12.706Z,10.90
2023-05-19T11:00:39.633Z,10.00
2023-05-19T11:03:15.594Z,7.50
2023-05-19T11:05:44.966Z,11.60
2023-05-19T11:08:11.918Z,11.70
2023-05-19T11:10:38.278Z,9.50
2023-05-19T11:13:06.541Z,11.00
2023-05-19T11:15:39.198Z,10.00
2023-05-19T11:18:05.673Z,7.70
2023-05-19T11:20:34.295Z,11.40
2023-05-19T11:23:07.713Z,8.30
2023-05-19T11:25:41.001Z,8.70
2023-05-19T11:28:07.831Z,9.50
2023-05-19T11:30:34.480Z,11.60
2023-05-19T11:33:01.074Z,9.60
2023-05-19T11:35:28.980Z,34.30
2023-05-19T11:37:55.817Z,12.60
2023-05-19T11:40:22.572Z,12.90
2023-05-19T11:42:48.976Z,9.10
2023-05-19T11:45:15.665Z,11.40
2023-05-19T11:48:00.085Z,11.20
2023-05-19T11:50:28.274Z,9.50
2023-05-19T11:52:55.071Z,12.50
2023-05-19T11:55:21.663Z,11.40
2023-05-19T11:58:05.112Z,13.00
2023-05-19T12:00:39.876Z,14.00
2023-05-19T12:03:07.532Z,10.70
2023-05-19T12:05:39.118Z,9.10
2023-05-19T12:08:08.165Z,14.40
2023-05-19T12:10:35.267Z,10.40
2023-05-19T12:13:02.380Z,9.00
2023-05-19T12:15:28.849Z,10.60
2023-05-19T12:17:59.503Z,9.30
2023-05-19T12:20:26.581Z,9.20
2023-05-19T12:22:55.858Z,9.00
2023-05-19T12:25:22.978Z,13.90
2023-05-19T12:27:52.029Z,10.20
2023-05-19T12:30:24.427Z,8.90
2023-05-19T12:32:52.861Z,9.00
2023-05-19T12:35:19.806Z,10.70
2023-05-19T12:37:48.569Z,10.50
2023-05-19T12:40:16.225Z,8.90
2023-05-19T12:42:45.726Z,10.20
2023-05-19T12:45:12.157Z,9.50
2023-05-19T12:47:39.099Z,11.50
2023-05-19T12:50:07.574Z,10.90
2023-05-19T12:52:40.019Z,9.20
2023-05-19T12:55:07.649Z,10.20
2023-05-19T12:57:37.857Z,8.10
2023-05-19T13:00:25.001Z,10.80
2023-05-19T13:03:01.040Z,9.10
2023-05-19T13:05:28.684Z,11.80
2023-05-19T13:07:59.041Z,8.70
2023-05-19T13:10:28.999Z,13.40
2023-05-19T13:12:55.546Z,20.40
2023-05-19T13:15:23.682Z,29.10
2023-05-19T13:17:50.654Z,31.50
2023-05-19T13:20:17.166Z,17.10
2023-05-19T13:22:44.339Z,14.50
2023-05-19T13:25:10.805Z,14.50
2023-05-19T13:27:37.395Z,71.20
2023-05-19T13:30:04.422Z,88.30
2023-05-19T13:32:30.893Z,51.40
2023-05-19T13:34:58.027Z,12.60
2023-05-19T13:37:26.903Z,34.60
2023-05-19T13:39:53.458Z,12.40
2023-05-19T13:42:19.906Z,153.30
2023-05-19T13:44:46.748Z,34.30
2023-05-19T13:47:13.319Z,15.80
2023-05-19T13:49:40.764Z,158.40
2023-05-19T13:52:07.353Z,52.80
2023-05-19T13:54:33.943Z,138.20
2023-05-19T13:57:00.497Z,107.30
2023-05-19T13:59:27.668Z,23.90
2023-05-19T14:01:54.246Z,28.70
2023-05-19T14:04:21.030Z,21.60
2023-05-19T14:06:47.688Z,80.00
2023-05-19T14:09:14.566Z,142.70
2023-05-19T14:11:41.354Z,60.60
2023-05-19T14:14:09.321Z,17.70
2023-05-19T14:16:38.373Z,36.00
2023-05-19T14:19:05.188Z,29.70
2023-05-19T14:21:32.063Z,44.30
2023-05-19T14:23:58.609Z,40.80
2023-05-19T14:26:28.630Z,38.50
2023-05-19T14:28:56.500Z,21.30
2023-05-19T14:31:23.101Z,26.50
2023-05-19T14:33:50.188Z,19.20
2023-05-19T14:36:16.701Z,19.50
2023-05-19T14:38:43.303Z,15.90
2023-05-19T14:41:10.144Z,20.30
2023-05-19T14:43:36.620Z,18.50
2023-05-19T14:46:03.132Z,15.90
2023-05-19T14:48:29.698Z,15.10
2023-05-19T14:50:56.103Z,15.00
2023-05-19T14:53:22.553Z,18.80
2023-05-19T14:55:49.059Z,20.30
2023-05-19T14:58:28.191Z,18.70
2023-05-19T15:00:58.886Z,26.00
2023-05-19T15:03:25.443Z,20.80
2023-05-19T15:05:52.044Z,21.10
2023-05-19T15:08:18.469Z,22.10
2023-05-19T15:10:47.753Z,25.60
2023-05-19T15:13:14.218Z,20.50
2023-05-19T15:15:40.693Z,23.50
2023-05-19T15:18:07.149Z,24.00
2023-05-19T15:20:33.927Z,19.70
2023-05-19T15:23:00.921Z,32.00
2023-05-19T15:25:27.438Z,21.60
2023-05-19T15:27:54.079Z,21.00
2023-05-19T15:30:20.866Z,20.00
2023-05-19T15:32:47.271Z,24.60
2023-05-19T15:35:14.132Z,17.20
2023-05-19T15:37:40.563Z,16.90
2023-05-19T15:40:07.362Z,17.30
2023-05-19T15:42:33.856Z,22.10
2023-05-19T15:45:00.425Z,20.70
2023-05-19T15:47:27.052Z,19.40
2023-05-19T15:49:53.547Z,24.60
2023-05-19T15:52:20.155Z,23.60
2023-05-19T15:54:48.089Z,23.80
2023-05-19T15:57:14.689Z,18.30
2023-05-19T15:59:41.212Z,24.10
2023-05-19T16:02:07.792Z,34.70
2023-05-19T16:04:34.287Z,24.40
2023-05-19T16:07:00.755Z,25.70
2023-05-19T16:09:27.135Z,19.00
2023-05-19T16:11:53.845Z,18.00
2023-05-19T16:14:20.292Z,18.00
2023-05-19T16:16:46.847Z,14.40
2023-05-19T16:19:13.384Z,20.60
2023-05-19T16:21:39.987Z,38.00
2023-05-19T16:24:06.470Z,20.50
2023-05-19T16:26:33.844Z,20.30
2023-05-19T16:29:00.228Z,22.60
2023-05-19T16:31:27.005Z,19.00
2023-05-19T16:33:53.440Z,19.50
2023-05-19T16:36:22.044Z,30.00
2023-05-19T16:38:48.397Z,21.80
2023-05-19T16:41:14.785Z,19.60
2023-05-19T16:43:41.294Z,23.50
2023-05-19T16:46:09.306Z,24.20
2023-05-19T16:48:36.088Z,21.50
2023-05-19T16:51:02.579Z,28.00
2023-05-19T16:53:29.175Z,23.70
2023-05-19T16:55:55.900Z,23.60
2023-05-19T16:58:23.707Z,24.10
2023-05-19T17:00:53.765Z,73.90
2023-05-19T17:03:20.644Z,35.40
2023-05-19T17:05:47.705Z,39.50
2023-05-19T17:08:14.241Z,28.40
2023-05-19T17:10:42.021Z,28.40
2023-05-19T17:13:08.543Z,29.50
2023-05-19T17:15:35.120Z,31.50
2023-05-19T17:18:01.591Z,28.40
2023-05-19T17:20:28.342Z,29.10
2023-05-19T17:22:55.969Z,37.10
2023-05-19T17:25:22.400Z,40.60
2023-05-19T17:27:49.018Z,58.30
2023-05-19T17:30:15.734Z,55.30
2023-05-19T17:32:42.246Z,41.80
2023-05-19T17:35:09.161Z,197.50
2023-05-19T17:37:35.766Z,148.60
2023-05-19T17:40:02.314Z,70.70
2023-05-19T17:42:31.017Z,53.40
2023-05-19T17:44:57.629Z,80.80
2023-05-19T17:47:24.232Z,109.60
2023-05-19T17:49:53.979Z,77.90
2023-05-19T17:52:21.049Z,48.80
2023-05-19T17:54:47.720Z,40.80
2023-05-19T17:57:15.232Z,37.60
2023-05-19T17:59:41.845Z,36.90
2023-05-19T18:02:09.220Z,43.50
2023-05-19T18:04:36.051Z,50.90
2023-05-19T18:07:02.956Z,44.90
2023-05-19T18:09:30.018Z,54.10
2023-05-19T18:11:56.737Z,55.10
2023-05-19T18:14:23.170Z,38.90
2023-05-19T18:16:49.773Z,33.90
2023-05-19T18:19:16.401Z,33.30
2023-05-19T18:21:42.984Z,36.30
2023-05-19T18:24:09.450Z,38.10
2023-05-19T18:26:41.012Z,33.90
2023-05-19T18:29:10.845Z,36.80
2023-05-19T18:31:37.823Z,36.30
2023-05-19T18:34:04.439Z,37.20
2023-05-19T18:36:31.156Z,40.10
2023-05-19T18:39:01.263Z,39.50
2023-05-19T18:41:27.829Z,36.70
2023-05-19T18:43:54.409Z,39.00
2023-05-19T18:46:21.048Z,46.80
2023-05-19T18:48:50.023Z,44.30
2023-05-19T18:51:18.107Z,39.30
2023-05-19T18:53:46.405Z,35.90
2023-05-19T18:56:14.603Z,48.50
2023-05-19T18:58:41.083Z,45.90
2023-05-19T19:01:07.943Z,45.50
2023-05-19T19:03:34.384Z,47.60
2023-05-19T19:06:00.824Z,47.30
2023-05-19T19:08:27.332Z,52.00
2023-05-19T19:10:58.534Z,43.90
2023-05-19T19:15:51.426Z,39.20
2023-05-19T19:18:17.907Z,36.00
2023-05-19T19:20:44.778Z,33.20
2023-05-19T19:23:11.273Z,34.90
2023-05-19T19:25:37.852Z,35.30
2023-05-19T19:28:04.417Z,31.00
2023-05-19T19:30:31.316Z,37.10
2023-05-19T19:32:58.802Z,39.20
2023-05-19T19:35:25.919Z,36.50
2023-05-19T19:37:52.517Z,38.80
2023-05-19T19:40:19.049Z,40.80
2023-05-19T19:42:45.562Z,57.80
2023-05-19T19:45:14.743Z,64.60
2023-05-19T19:47:42.265Z,44.10
2023-05-19T19:50:10.006Z,52.40
2023-05-19T19:52:37.066Z,51.80
2023-05-19T19:55:03.949Z,39.90
2023-05-19T19:57:33.374Z,39.40
2023-05-19T20:00:06.993Z,37.10
2023-05-19T20:02:34.887Z,34.30
2023-05-19T20:05:01.769Z,41.00
2023-05-19T20:07:28.390Z,69.40
2023-05-19T20:09:57.887Z,68.40
2023-05-19T20:12:24.687Z,51.30
2023-05-19T20:14:54.034Z,48.70
2023-05-19T20:17:20.786Z,39.70
2023-05-19T20:19:47.420Z,44.00
2023-05-19T20:22:13.856Z,42.00
2023-05-19T20:24:40.754Z,38.20
2023-05-19T20:27:09.074Z,37.90
2023-05-19T20:29:36.101Z,39.40
2023-05-19T20:32:02.664Z,37.30
2023-05-19T20:34:29.307Z,34.40
2023-05-19T20:36:55.988Z,38.80
2023-05-19T20:39:22.385Z,38.60
2023-05-19T20:41:48.863Z,36.80
2023-05-19T20:44:15.536Z,38.00
2023-05-19T20:46:41.904Z,34.00
2023-05-19T20:49:08.463Z,38.80
2023-05-19T20:51:35.261Z,40.10
2023-05-19T20:54:01.732Z,35.70
2023-05-19T20:56:28.126Z,33.90
2023-05-19T20:58:54.815Z,40.90
2023-05-19T21:01:24.780Z,35.10
2023-05-19T21:03:52.026Z,34.20
2023-05-19T21:06:18.410Z,39.50
2023-05-19T21:08:45.298Z,34.80
2023-05-19T21:11:11.855Z,33.60
2023-05-19T21:13:38.593Z,31.10
2023-05-19T21:16:05.504Z,37.30
2023-05-19T21:18:32.042Z,33.10
2023-05-19T21:21:00.852Z,39.10
2023-05-19T21:23:27.491Z,40.10
2023-05-19T21:25:53.919Z,35.00
2023-05-19T21:28:20.759Z,35.30
2023-05-19T21:30:48.493Z,30.80
2023-05-19T21:33:15.496Z,32.40
2023-05-19T21:35:42.019Z,29.10
2023-05-19T21:38:19.623Z,30.70
2023-05-19T21:40:49.039Z,31.70
2023-05-19T21:43:15.485Z,31.40
2023-05-19T21:45:41.893Z,32.40
2023-05-19T21:48:08.446Z,30.20
2023-05-19T21:50:35.732Z,29.80
2023-05-19T21:53:02.404Z,31.90
2023-05-19T21:55:28.925Z,35.30
2023-05-19T21:57:55.384Z,31.00
2023-05-19T22:00:22.098Z,32.50
2023-05-19T22:02:48.829Z,27.80
2023-05-19T22:05:15.466Z,28.90
2023-05-19T22:07:42.510Z,30.10
2023-05-19T22:10:09.664Z,27.60
2023-05-19T22:12:36.041Z,27.90
2023-05-19T22:15:02.972Z,32.20
2023-05-19T22:17:29.442Z,27.10
2023-05-19T22:19:55.868Z,32.70
2023-05-19T22:22:22.457Z,30.90
2023-05-19T22:24:48.944Z,30.30
2023-05-19T22:27:18.013Z,33.40
2023-05-19T22:29:44.827Z,32.70
2023-05-19T22:32:11.503Z,33.60
2023-05-19T22:34:38.433Z,29.30
2023-05-19T22:37:07.499Z,32.10
2023-05-19T22:39:33.918Z,32.50
2023-05-19T22:42:00.775Z,32.60
2023-05-19T22:44:27.443Z,33.70
2023-05-19T22:46:53.822Z,30.00
2023-05-19T22:49:22.257Z,33.70
2023-05-19T22:51:49.322Z,31.30
2023-05-19T22:54:16.161Z,30.70
2023-05-19T22:56:45.268Z,33.90
2023-05-19T22:59:13.001Z,31.20
2023-05-19T23:01:39.673Z,29.30
2023-05-19T23:04:06.230Z,34.30
2023-05-19T23:06:32.708Z,34.30
2023-05-19T23:09:03.108Z,33.70
2023-05-19T23:11:29.707Z,35.50
2023-05-19T23:13:56.171Z,31.60
2023-05-19T23:16:22.748Z,34.60
2023-05-19T23:18:49.194Z,32.70
2023-05-19T23:21:15.911Z,36.10
2023-05-19T23:23:42.424Z,32.90
2023-05-19T23:26:08.848Z,38.00
2023-05-19T23:28:35.298Z,31.40
2023-05-19T23:31:01.705Z,30.30
2023-05-19T23:33:28.425Z,33.90
2023-05-19T23:35:54.913Z,31.40
2023-05-19T23:38:21.352Z,31.70
2023-05-19T23:40:47.751Z,36.10
2023-05-19T23:43:14.172Z,32.80
2023-05-19T23:45:41.068Z,33.10
2023-05-19T23:48:07.491Z,34.10
2023-05-19T23:50:34.146Z,33.50
2023-05-19T23:53:00.753Z,35.20
2023-05-19T23:55:27.173Z,34.00
2023-05-19T23:57:53.643Z,33.40
